createdAt,value
2023-03-19T00:04:11.562Z,27.05
2023-03-19T00:09:05.953Z,20.40
2023-03-19T00:13:58.566Z,24.10
2023-03-19T00:18:52.937Z,23.10
2023-03-19T00:23:45.801Z,21.77
2023-03-19T00:28:44.296Z,20.17
2023-03-19T00:33:37.441Z,23.63
2023-03-19T00:38:31.590Z,29.48
2023-03-19T00:43:24.806Z,22.85
2023-03-19T00:48:18.630Z,23.80
2023-03-19T00:53:12.382Z,22.65
2023-03-19T00:58:06.950Z,27.17
2023-03-19T01:03:01.491Z,21.48
2023-03-19T01:07:56.335Z,26.15
2023-03-19T01:12:49.565Z,25.35
2023-03-19T01:17:43.206Z,21.77
2023-03-19T01:22:38.962Z,28.63
2023-03-19T01:27:32.605Z,24.10
2023-03-19T01:32:27.478Z,27.38
2023-03-19T01:37:45.546Z,24.40
2023-03-19T01:42:58.456Z,22.33
2023-03-19T01:48:43.870Z,27.10
2023-03-19T01:58:41.942Z,21.75
2023-03-19T02:03:55.364Z,25.60
2023-03-19T02:08:54.153Z,24.47
2023-03-19T02:13:47.539Z,22.98
2023-03-19T02:18:40.117Z,18.80
2023-03-19T02:23:54.177Z,19.80
2023-03-19T02:29:00.544Z,23.30
2023-03-19T02:34:02.762Z,23.15
2023-03-19T02:38:56.433Z,21.65
2023-03-19T02:43:50.181Z,23.70
2023-03-19T02:48:44.023Z,23.48
2023-03-19T02:53:37.417Z,24.83
2023-03-19T02:58:30.687Z,27.15
2023-03-19T03:03:23.922Z,25.73
2023-03-19T03:08:17.182Z,24.90
2023-03-19T03:13:09.887Z,27.92
2023-03-19T03:18:03.954Z,26.25
2023-03-19T03:22:57.959Z,23.52
2023-03-19T03:27:52.148Z,25.23
2023-03-19T03:32:45.268Z,21.33
2023-03-19T03:37:38.646Z,23.13
2023-03-19T03:42:32.061Z,24.52
2023-03-19T03:47:25.228Z,21.45
2023-03-19T03:52:17.997Z,22.30
2023-03-19T03:57:11.085Z,26.50
2023-03-19T04:02:04.887Z,27.48
2023-03-19T04:06:58.465Z,29.50
2023-03-19T04:12:00.394Z,25.45
2023-03-19T04:16:53.644Z,28.92
2023-03-19T04:21:46.534Z,36.13
2023-03-19T04:26:40.535Z,26.17
2023-03-19T04:31:34.424Z,31.33
2023-03-19T04:36:32.058Z,30.85
2023-03-19T04:41:26.446Z,28.45
2023-03-19T04:46:39.882Z,22.73
2023-03-19T04:51:34.407Z,24.75
2023-03-19T04:56:29.541Z,26.55
2023-03-19T05:01:23.358Z,27.42
2023-03-19T05:06:29.864Z,21.80
2023-03-19T05:11:23.350Z,21.73
2023-03-19T05:16:29.319Z,21.75
2023-03-19T05:21:22.575Z,25.52
2023-03-19T05:26:19.627Z,23.40
2023-03-19T05:31:32.744Z,24.65
2023-03-19T05:36:26.419Z,24.83
2023-03-19T05:41:43.241Z,25.23
2023-03-19T05:46:38.828Z,24.30
2023-03-19T05:51:33.533Z,24.92
2023-03-19T05:56:30.410Z,21.55
2023-03-19T06:01:42.192Z,20.02
2023-03-19T06:06:35.668Z,18.83
2023-03-19T06:11:28.635Z,20.48
2023-03-19T06:16:44.307Z,23.95
2023-03-19T06:21:38.987Z,28.63
2023-03-19T06:26:32.910Z,21.17
2023-03-19T06:31:29.278Z,23.23
2023-03-19T06:36:27.021Z,20.60
2023-03-19T06:41:20.478Z,26.40
2023-03-19T06:46:14.618Z,25.80
2023-03-19T06:51:08.462Z,26.70
2023-03-19T06:56:03.119Z,22.45
2023-03-19T07:00:57.335Z,27.98
2023-03-19T07:05:51.978Z,20.48
2023-03-19T07:10:46.422Z,27.08
2023-03-19T07:15:39.381Z,23.27
2023-03-19T07:20:33.442Z,20.90
2023-03-19T07:25:26.986Z,21.55
2023-03-19T07:30:20.933Z,29.33
2023-03-19T07:35:14.792Z,21.70
2023-03-19T07:40:09.485Z,21.00
2023-03-19T07:45:04.353Z,23.63
2023-03-19T07:49:58.624Z,19.15
2023-03-19T07:54:52.468Z,17.75
2023-03-19T07:59:46.277Z,20.13
2023-03-19T08:04:40.280Z,19.67
2023-03-19T08:09:35.396Z,20.42
2023-03-19T08:14:29.214Z,19.17
2023-03-19T08:19:23.352Z,20.92
2023-03-19T08:24:16.330Z,24.27
2023-03-19T08:29:10.310Z,22.13
2023-03-19T08:34:05.186Z,25.95
2023-03-19T08:38:59.437Z,27.20
2023-03-19T08:43:53.492Z,22.95
2023-03-19T08:48:47.367Z,18.05
2023-03-19T08:53:40.919Z,19.17
2023-03-19T08:58:34.536Z,19.77
2023-03-19T09:03:28.117Z,17.55
2023-03-19T09:08:22.053Z,17.25
2023-03-19T09:13:16.709Z,18.75
2023-03-19T09:18:10.263Z,16.52
2023-03-19T09:23:07.228Z,18.05
2023-03-19T09:28:00.952Z,16.20
2023-03-19T09:32:55.065Z,17.42
2023-03-19T09:37:50.905Z,15.35
2023-03-19T09:43:17.464Z,13.38
2023-03-19T09:48:16.309Z,13.77
2023-03-19T09:53:18.740Z,13.18
2023-03-19T09:58:15.530Z,16.42
2023-03-19T10:03:56.350Z,18.73
2023-03-19T10:09:18.817Z,15.43
2023-03-19T10:14:26.161Z,16.88
2023-03-19T10:19:23.369Z,21.77
2023-03-19T10:24:28.106Z,16.63
2023-03-19T10:29:22.066Z,18.45
2023-03-19T10:34:40.592Z,16.75
2023-03-19T10:39:37.981Z,21.63
2023-03-19T10:44:32.327Z,18.20
2023-03-19T10:49:26.098Z,18.35
2023-03-19T10:54:25.462Z,19.77
2023-03-19T10:59:27.716Z,17.48
2023-03-19T11:04:24.075Z,19.83
2023-03-19T11:09:32.871Z,20.30
2023-03-19T11:14:49.172Z,22.73
2023-03-19T11:20:06.140Z,19.67
2023-03-19T11:25:02.715Z,23.98
2023-03-19T11:29:56.262Z,24.65
2023-03-19T11:35:13.860Z,20.30
2023-03-19T11:40:32.096Z,21.55
2023-03-19T11:45:48.481Z,25.48
2023-03-19T11:51:08.677Z,22.15
2023-03-19T11:56:04.401Z,23.60
2023-03-19T12:00:57.760Z,22.65
2023-03-19T12:06:37.416Z,22.50
2023-03-19T12:11:56.669Z,30.10
2023-03-19T12:17:04.329Z,38.88
2023-03-19T12:22:35.148Z,25.33
2023-03-19T12:27:38.362Z,22.08
2023-03-19T12:32:40.275Z,23.58
2023-03-19T12:37:43.527Z,22.65
2023-03-19T12:42:40.117Z,24.38
2023-03-19T12:47:37.626Z,28.88
2023-03-19T12:52:39.348Z,23.38
2023-03-19T12:57:39.509Z,28.77
2023-03-19T13:02:41.609Z,24.38
2023-03-19T13:07:45.675Z,24.95
2023-03-19T13:12:39.735Z,26.02
2023-03-19T13:18:09.576Z,29.00
2023-03-19T13:23:05.849Z,28.70
2023-03-19T13:27:58.240Z,26.20
2023-03-19T13:33:05.149Z,25.65
2023-03-19T13:38:21.899Z,20.90
2023-03-19T13:43:34.394Z,20.00
2023-03-19T13:48:27.030Z,23.00
2023-03-19T13:53:32.479Z,22.30
2023-03-19T13:58:55.830Z,18.48
2023-03-19T14:03:56.981Z,23.45
2023-03-19T14:08:51.904Z,24.88
2023-03-19T14:13:49.237Z,17.40
2023-03-19T14:18:43.535Z,17.88
2023-03-19T14:23:43.021Z,17.98
2023-03-19T14:28:46.214Z,20.85
2023-03-19T14:34:08.448Z,16.95
2023-03-19T14:39:05.762Z,20.52
2023-03-19T14:44:34.442Z,22.02
2023-03-19T14:49:28.481Z,19.73
2023-03-19T14:54:45.191Z,17.45
2023-03-19T14:59:39.852Z,15.70
2023-03-19T15:04:32.480Z,15.60
2023-03-19T15:09:31.897Z,16.05
2023-03-19T15:14:36.167Z,14.40
2023-03-19T15:19:31.027Z,17.35
2023-03-19T15:24:25.013Z,13.98
2023-03-19T15:29:19.099Z,14.05
2023-03-19T15:34:27.101Z,13.05
2023-03-19T15:39:21.341Z,11.65
2023-03-19T15:44:18.802Z,14.63
2023-03-19T15:49:17.270Z,11.57
2023-03-19T15:59:03.631Z,12.45
2023-03-19T16:04:30.412Z,14.82
2023-03-19T16:09:35.001Z,17.85
2023-03-19T16:14:32.773Z,14.75
2023-03-19T16:19:38.790Z,15.50
2023-03-19T16:24:36.610Z,23.30
2023-03-19T16:29:35.647Z,20.70
2023-03-19T16:35:06.192Z,25.67
2023-03-19T16:40:14.101Z,19.52
2023-03-19T16:45:27.914Z,25.98
2023-03-19T16:50:23.878Z,17.60
2023-03-19T16:55:25.020Z,17.20
2023-03-19T17:00:21.404Z,21.77
2023-03-19T17:05:15.339Z,17.95
2023-03-19T17:10:19.539Z,16.80
2023-03-19T17:15:37.885Z,14.40
2023-03-19T17:20:41.200Z,14.98
2023-03-19T17:25:34.842Z,21.20
2023-03-19T17:30:28.969Z,19.83
2023-03-19T17:35:22.997Z,22.88
2023-03-19T17:40:23.805Z,18.25
2023-03-19T17:45:18.275Z,22.10
2023-03-19T17:50:20.246Z,23.98
2023-03-19T17:55:22.013Z,22.40
2023-03-19T18:00:15.403Z,18.55
2023-03-19T18:05:16.550Z,18.20
2023-03-19T18:10:22.202Z,19.13
2023-03-19T18:15:16.235Z,23.40
2023-03-19T18:20:14.993Z,20.77
2023-03-19T18:25:38.793Z,17.58
2023-03-19T18:30:35.403Z,20.88
2023-03-19T18:35:34.019Z,27.60
2023-03-19T18:40:29.889Z,25.77
2023-03-19T18:45:23.461Z,27.15
2023-03-19T18:50:23.396Z,25.67
2023-03-19T18:55:16.917Z,21.05
2023-03-19T19:00:22.473Z,21.33
2023-03-19T19:05:23.814Z,28.27
2023-03-19T19:10:17.715Z,34.13
2023-03-19T19:15:25.867Z,28.45
2023-03-19T19:20:20.656Z,39.35
2023-03-19T19:25:20.156Z,26.85
2023-03-19T19:30:19.020Z,28.10
2023-03-19T19:35:16.976Z,32.42
2023-03-19T19:40:13.568Z,29.08
2023-03-19T19:45:10.181Z,26.42
2023-03-19T19:50:03.020Z,23.67
2023-03-19T19:54:56.212Z,26.45
2023-03-19T19:59:50.084Z,31.52
2023-03-19T20:04:44.390Z,27.73
2023-03-19T20:09:38.860Z,29.35
2023-03-19T20:14:32.378Z,27.92
2023-03-19T20:19:26.415Z,32.85
2023-03-19T20:24:19.493Z,31.05
2023-03-19T20:29:17.064Z,30.05
2023-03-19T20:34:32.468Z,33.90
2023-03-19T20:39:32.221Z,32.63
2023-03-19T20:44:26.621Z,30.27
2023-03-19T20:49:21.183Z,32.25
2023-03-19T20:54:15.586Z,32.20
2023-03-19T20:59:11.692Z,33.58
2023-03-19T21:04:06.248Z,34.25
2023-03-19T21:09:02.884Z,34.33
2023-03-19T21:13:56.907Z,31.73
2023-03-19T21:18:57.491Z,36.67
2023-03-19T21:23:55.558Z,44.25
2023-03-19T21:28:48.981Z,35.65
2023-03-19T21:33:44.166Z,37.50
2023-03-19T21:38:37.550Z,40.33
2023-03-19T21:43:54.360Z,33.72
2023-03-19T21:48:48.036Z,35.13
2023-03-19T21:53:42.985Z,39.70
2023-03-19T21:58:36.649Z,37.17
2023-03-19T22:03:30.317Z,30.73
2023-03-19T22:08:25.006Z,30.30
2023-03-19T22:13:23.009Z,35.17
2023-03-19T22:18:16.073Z,34.40
2023-03-19T22:23:10.204Z,32.08
2023-03-19T22:28:08.601Z,32.28
2023-03-19T22:33:02.057Z,31.83
2023-03-19T22:37:54.795Z,31.13
2023-03-19T22:42:49.065Z,34.20
2023-03-19T22:47:42.821Z,35.22
2023-03-19T22:52:37.030Z,33.97
2023-03-19T22:57:31.016Z,35.20
2023-03-19T23:02:23.722Z,34.13
2023-03-19T23:07:16.066Z,32.35
2023-03-19T23:12:12.702Z,33.47
2023-03-19T23:17:15.705Z,33.80
2023-03-19T23:22:14.214Z,35.00
2023-03-19T23:27:10.999Z,39.93
2023-03-19T23:32:05.125Z,40.50
2023-03-19T23:36:58.876Z,44.97
2023-03-19T23:41:53.907Z,45.10
2023-03-19T23:46:50.056Z,47.60
2023-03-19T23:51:44.390Z,54.17
2023-03-19T23:56:38.895Z,49.97
